ADDS METAR Data INFO
IDs: Format: Raw Decoded Include TAF

Data at: 1915 UTC 19 Jul 2018

KGLY 191855Z AUTO 13010KT 7SM TS CLR 30/24 A2988 RMK AO2 LTG DSNT ALQDS
KGLY 191835Z AUTO 13012KT 7SM VCTS CLR 30/24 A2988 RMK AO2 LTG DSNT N AND NW
KGLY 191815Z AUTO 13011KT 6SM HZ CLR 30/24 A2988 RMK AO2
KGLY 191755Z AUTO 15010G14KT 7SM FEW016 29/25 A2989 RMK AO2 LTG DSNT N AND NE
KGLY 191735Z AUTO 14008G15KT 100V160 6SM VCTS HZ FEW035 29/24 A2988 RMK AO2 LTG DSNT N AND E
KGLY 191715Z AUTO 09010KT 7SM BKN022 29/24 A2990 RMK AO2 LTG DSNT N
KGLY 191615Z AUTO 22005KT 7SM VCTS CLR 29/24 A2988 RMK AO2 LTG DSNT N-E
KGLY 191555Z AUTO 22004KT 7SM VCTS FEW075 28/24 A2989 RMK AO2 LTG DSNT N AND NE
KGLY 191535Z AUTO 23008KT 6SM HZ CLR 29/24 A2988 RMK AO2 LTG DSNT N-E
KGLY 191455Z AUTO 20007KT 7SM FEW013 28/24 A2988 RMK AO2
KGLY 191435Z AUTO 19006KT 6SM BR BKN011 27/24 A2989 RMK AO2
KGLY 191415Z AUTO 19007KT 6SM BR BKN011 26/24 A2990 RMK AO2
KGLY 191355Z AUTO 20005KT 5SM BR BKN008 25/24 A2990 RMK AO2
KGLY 191315Z AUTO 19005KT 5SM BR OVC006 24/24 A2990 RMK AO2
KGLY 191255Z AUTO 19006KT 5SM BR OVC005 24/24 A2990 RMK AO2
KGLY 191235Z AUTO 20006KT 5SM BR OVC006 23/23 A2990 RMK AO2
KGLY 191155Z AUTO 17007KT 5SM BR CLR 23/23 A2989 RMK AO2
KGLY 191135Z AUTO 16003KT 5SM BR FEW120 23/23 A2991 RMK AO2
KGLY 191055Z AUTO 00000KT 7SM SCT009 OVC095 23/23 A2992 RMK AO2
KGLY 191035Z AUTO 00000KT 7SM BKN009 BKN095 23/23 A2991 RMK AO2
KGLY 190955Z AUTO 00000KT 7SM FEW009 23/23 A2990 RMK AO2
KGLY 190935Z AUTO 16005KT 7SM CLR 23/23 A2990 RMK AO2
KGLY 190915Z AUTO 15004KT 7SM CLR 23/23 A2990 RMK AO2
KGLY 190855Z AUTO 13005KT 6SM BR CLR 23/23 A2990 RMK AO2
KGLY 190835Z AUTO 14004KT 7SM FEW032 23/23 A2990 RMK AO2
KGLY 190815Z AUTO 14005KT 7SM FEW032 23/23 A2990 RMK AO2
KGLY 190755Z AUTO 13005KT 6SM BR SCT035 23/23 A2991 RMK AO2
KGLY 190735Z AUTO 13005KT 7SM SCT033 BKN041 23/23 A2991 RMK AO2
KGLY 190715Z AUTO 00000KT 7SM FEW038 SCT046 23/23 A2991 RMK AO2
KGLY 190655Z AUTO 00000KT 7SM CLR 23/23 A2992 RMK AO2
KGLY 190635Z AUTO 14003KT 7SM FEW034 24/23 A2993 RMK AO2
KGLY 190615Z AUTO 13005KT 9SM SCT036 24/23 A2993 RMK AO2
KGLY 190555Z AUTO 15005KT 9SM SCT036 BKN042 24/23 A2993 RMK AO2
KGLY 190535Z AUTO 14004KT 8SM BKN036 OVC043 24/23 A2994 RMK AO2
KGLY 190515Z AUTO 14005KT 9SM OVC038 24/23 A2994 RMK AO2
KGLY 190435Z AUTO 15004KT 10SM FEW032 BKN040 OVC095 24/23 A2994 RMK AO2
KGLY 190315Z AUTO 13004KT 10SM SCT050 BKN100 24/23 A2994 RMK AO2 LTG DSNT W
KGLY 190255Z AUTO 14003KT 10SM FEW050 SCT100 25/23 A2994 RMK AO2 LTG DSNT W
KGLY 190215Z AUTO 12004KT 10SM SCT060 BKN110 25/23 A2993 RMK AO2 LTG DSNT SE AND W
KGLY 190135Z AUTO 11005KT 8SM FEW037 BKN060 27/23 A2992 RMK AO2 LTG DSNT SE
KGLY 190055Z AUTO 11007KT 9SM BKN060 28/24 A2991 RMK AO2 LTG DSNT SE AND W
KGLY 190015Z AUTO 11008KT 9SM CLR 28/24 A2991 RMK AO2
KGLY 182335Z AUTO 11005KT 9SM FEW023 29/24 A2992 RMK AO2
KGLY 182215Z AUTO 13008KT 9SM SCT025 29/23 A2993 RMK AO2
KGLY 182035Z AUTO 08005KT 10SM BKN023 BKN032 29/24 A2995 RMK AO2
KGLY 182015Z AUTO 11006KT 9SM BKN025 BKN032 29/23 A2996 RMK AO2
KGLY 181935Z AUTO 13006KT 9SM BKN023 29/23 A2997 RMK AO2
KGLY 181855Z AUTO 11007KT 10SM SCT023 29/23 A2998 RMK AO2
KGLY 181835Z AUTO 11009KT 9SM CLR 28/23 A2999 RMK AO2
KGLY 181815Z AUTO 10009KT 10SM CLR 28/22 A2999 RMK AO2
KGLY 181755Z AUTO 13008KT 10SM FEW030 28/23 A3000 RMK AO2
KGLY 181635Z AUTO 11011KT 10SM BKN013 OVC024 27/23 A3002 RMK AO2
KGLY 181455Z AUTO 11008KT 9SM BKN008 BKN035 24/23 A3002 RMK AO2 LTG DSNT SE
KGLY 181435Z AUTO 11007KT 9SM SCT008 BKN065 24/24 A3002 RMK AO2
KGLY 181415Z AUTO 12010KT 9SM SCT006 SCT065 23/23 A3002 RMK AO2
KGLY 181335Z AUTO 12008KT 10SM FEW045 OVC060 22/22 A3003 RMK AO2 LTG DSNT SE
KGLY 181315Z AUTO 11011KT 9SM BKN005 BKN043 OVC060 21/21 A3003 RMK AO2
KGLY 181255Z AUTO 06006KT 7SM -RA BKN004 OVC039 22/22 A3004 RMK AO2 LTG DSNT SE
KGLY 181115Z AUTO 05008KT 7SM OVC005 22/22 A3003 RMK AO2 LTG DSNT E AND SE
KGLY 181055Z AUTO 04007KT 7SM OVC006 22/22 A3002 RMK AO2 LTG DSNT SE
KGLY 181035Z AUTO 07005KT 7SM BKN006 OVC033 22/22 A3002 RMK AO2 LTG DSNT E AND SE
KGLY 181015Z AUTO 06005KT 7SM FEW006 BKN033 OVC045 22/22 A3002 RMK AO2 LTG DSNT SE
KGLY 180955Z AUTO 09006KT 7SM SCT006 BKN035 OVC050 22/22 A3002 RMK AO2 LTG DSNT E AND SE
KGLY 180935Z AUTO 12004KT 9SM FEW006 BKN040 OVC060 22/22 A3002 RMK AO2
KGLY 180915Z AUTO 12008KT 9SM FEW003 BKN036 OVC060 22/22 A3001 RMK AO2
KGLY 180855Z AUTO 08011G16KT 3SM -RA SCT002 BKN007 OVC043 22/22 A3001 RMK AO2
KGLY 180835Z AUTO 07008KT 1 1/4SM RA SCT005 BKN023 OVC032 23/23 A3003 RMK AO2
KGLY 180815Z AUTO 12005KT 7SM FEW036 BKN060 OVC070 23/23 A3003 RMK AO2
KGLY 180755Z AUTO 12005KT 8SM BKN060 BKN065 22/22 A3003 RMK AO2
KGLY 180735Z AUTO 15004KT 9SM SCT060 BKN090 BKN110 22/22 A3003 RMK AO2